Oakhill, Alabama
Current Conditions -  °F | °C
As of 6:56 AM on Saturday 20 Dec 2014 (Local Time) from KPRN Reporting Station
Haze Haze  
Wind Chill: 41°   Ceiling: 100
Heat Index: 45°   Visibility: 6mi
Dew Point: 43°   Wind: 8mph
Humidity: 93%   Direction: 30°NNE
Pressure: 30.17"   Gusts: NA
Location:  31.9217°N, 87.0814°W
Report Text: KPRN 201256Z AUTO 03007KT 6SM BR OVC001 07/06 A3017 RMK AO2 SLP215 T00720061
Loading
Personal Weather Stations






























Interactive Weather Map New forecast layout! Learn more

10-Day Weather Forecast

Advertisements
Track Severe Weather on mobile